Abegall, Kentucky
Current Conditions -  °F | °C
As of 4:15 AM on Sunday 23 Nov 2014 (Local Time) from KFGX Reporting Station
Broken Clouds Broken Clouds  
Wind Chill: 45°   Ceiling: 4700
Heat Index: 49°   Visibility: 10mi
Dew Point: 35°   Wind: 9mph
Humidity: 58%   Direction: 180°S
Pressure: 30.06"   Gusts: NA
Location:  38.6546°N, 83.9578°W
Report Text: KFGX 230915Z AUTO 18008KT 10SM BKN047 BKN090 10/02 A3006 RMK AO2 T00960018
Loading
Personal Weather Stations






























Interactive Weather Map New forecast layout! Learn more

10-Day Weather Forecast

Advertisements
Track Severe Weather on mobile